sensor_id;sensor_type;location;lat;lon;timestamp;P1;durP1;ratioP1;P2;durP2;ratioP2
26977;SDS011;56314;48.088;11.642;2022-07-23T00:01:26;9.63;;;8.27;;
26977;SDS011;56314;48.088;11.642;2022-07-23T00:03:52;9.23;;;7.38;;
26977;SDS011;56314;48.088;11.642;2022-07-23T00:06:19;8.30;;;7.50;;
26977;SDS011;56314;48.088;11.642;2022-07-23T00:08:44;9.02;;;7.30;;
26977;SDS011;56314;48.088;11.642;2022-07-23T00:11:10;8.00;;;7.25;;
26977;SDS011;56314;48.088;11.642;2022-07-23T00:13:35;8.27;;;7.30;;
26977;SDS011;56314;48.088;11.642;2022-07-23T00:16:01;8.40;;;7.60;;
26977;SDS011;56314;48.088;11.642;2022-07-23T00:18:27;7.97;;;7.22;;
26977;SDS011;56314;48.088;11.642;2022-07-23T00:20:52;10.15;;;7.65;;
26977;SDS011;56314;48.088;11.642;2022-07-23T00:23:18;8.25;;;7.40;;
26977;SDS011;56314;48.088;11.642;2022-07-23T00:25:43;8.35;;;7.53;;
26977;SDS011;56314;48.088;11.642;2022-07-23T00:28:10;8.18;;;7.32;;
26977;SDS011;56314;48.088;11.642;2022-07-23T00:30:36;9.52;;;7.60;;
26977;SDS011;56314;48.088;11.642;2022-07-23T00:33:02;8.65;;;7.43;;
26977;SDS011;56314;48.088;11.642;2022-07-23T00:35:32;7.03;;;6.43;;
26977;SDS011;56314;48.088;11.642;2022-07-23T00:38:00;9.50;;;7.30;;
26977;SDS011;56314;48.088;11.642;2022-07-23T00:40:27;8.98;;;7.72;;
26977;SDS011;56314;48.088;11.642;2022-07-23T00:42:53;8.43;;;7.68;;
26977;SDS011;56314;48.088;11.642;2022-07-23T00:45:19;8.07;;;7.28;;
26977;SDS011;56314;48.088;11.642;2022-07-23T00:47:45;8.63;;;7.13;;
26977;SDS011;56314;48.088;11.642;2022-07-23T00:50:10;9.38;;;7.07;;
26977;SDS011;56314;48.088;11.642;2022-07-23T00:52:36;8.82;;;7.03;;
26977;SDS011;56314;48.088;11.642;2022-07-23T00:55:03;6.88;;;6.28;;
26977;SDS011;56314;48.088;11.642;2022-07-23T00:57:30;9.27;;;7.60;;
26977;SDS011;56314;48.088;11.642;2022-07-23T00:59:55;7.85;;;7.15;;
26977;SDS011;56314;48.088;11.642;2022-07-23T01:02:22;7.95;;;6.80;;
26977;SDS011;56314;48.088;11.642;2022-07-23T01:04:48;7.68;;;6.20;;
26977;SDS011;56314;48.088;11.642;2022-07-23T01:07:14;7.70;;;7.00;;
26977;SDS011;56314;48.088;11.642;2022-07-23T01:09:40;8.35;;;7.65;;
26977;SDS011;56314;48.088;11.642;2022-07-23T01:12:05;7.75;;;6.95;;
26977;SDS011;56314;48.088;11.642;2022-07-23T01:14:32;8.00;;;7.30;;
26977;SDS011;56314;48.088;11.642;2022-07-23T01:16:57;8.40;;;7.65;;
26977;SDS011;56314;48.088;11.642;2022-07-23T01:19:22;10.38;;;7.28;;
26977;SDS011;56314;48.088;11.642;2022-07-23T01:21:49;10.57;;;7.95;;
26977;SDS011;56314;48.088;11.642;2022-07-23T01:24:16;8.60;;;7.80;;
26977;SDS011;56314;48.088;11.642;2022-07-23T01:26:45;25.50;;;10.10;;
26977;SDS011;56314;48.088;11.642;2022-07-23T01:29:11;10.85;;;8.55;;
26977;SDS011;56314;48.088;11.642;2022-07-23T01:31:37;10.52;;;7.65;;
26977;SDS011;56314;48.088;11.642;2022-07-23T01:34:03;13.80;;;7.80;;
26977;SDS011;56314;48.088;11.642;2022-07-23T01:36:29;19.38;;;8.15;;
26977;SDS011;56314;48.088;11.642;2022-07-23T01:38:55;13.25;;;7.43;;
26977;SDS011;56314;48.088;11.642;2022-07-23T01:41:20;17.73;;;6.80;;
26977;SDS011;56314;48.088;11.642;2022-07-23T01:43:45;13.40;;;5.97;;
26977;SDS011;56314;48.088;11.642;2022-07-23T01:46:11;11.80;;;4.90;;
26977;SDS011;56314;48.088;11.642;2022-07-23T01:48:36;8.65;;;5.03;;
26977;SDS011;56314;48.088;11.642;2022-07-23T01:51:02;11.90;;;4.90;;
26977;SDS011;56314;48.088;11.642;2022-07-23T01:53:27;6.20;;;5.13;;
26977;SDS011;56314;48.088;11.642;2022-07-23T01:55:56;7.50;;;5.55;;
26977;SDS011;56314;48.088;11.642;2022-07-23T01:58:21;6.93;;;5.72;;
26977;SDS011;56314;48.088;11.642;2022-07-23T02:00:47;7.57;;;6.20;;
26977;SDS011;56314;48.088;11.642;2022-07-23T02:03:12;11.25;;;6.03;;
26977;SDS011;56314;48.088;11.642;2022-07-23T02:05:37;7.93;;;5.95;;
26977;SDS011;56314;48.088;11.642;2022-07-23T02:08:03;6.28;;;5.40;;
26977;SDS011;56314;48.088;11.642;2022-07-23T02:10:28;5.85;;;5.35;;
26977;SDS011;56314;48.088;11.642;2022-07-23T02:12:54;6.88;;;5.10;;
26977;SDS011;56314;48.088;11.642;2022-07-23T02:15:19;6.32;;;5.28;;
26977;SDS011;56314;48.088;11.642;2022-07-23T02:17:44;7.35;;;5.20;;
26977;SDS011;56314;48.088;11.642;2022-07-23T02:20:10;6.38;;;4.70;;
26977;SDS011;56314;48.088;11.642;2022-07-23T02:22:36;8.15;;;5.00;;
26977;SDS011;56314;48.088;11.642;2022-07-23T02:25:03;7.65;;;5.13;;
26977;SDS011;56314;48.088;11.642;2022-07-23T02:27:29;8.65;;;5.20;;
26977;SDS011;56314;48.088;11.642;2022-07-23T02:29:55;9.15;;;5.53;;
26977;SDS011;56314;48.088;11.642;2022-07-23T02:32:20;6.40;;;5.10;;
26977;SDS011;56314;48.088;11.642;2022-07-23T02:34:49;4.80;;;4.40;;
26977;SDS011;56314;48.088;11.642;2022-07-23T02:37:15;6.93;;;3.95;;
26977;SDS011;56314;48.088;11.642;2022-07-23T02:39:41;5.65;;;4.00;;
26977;SDS011;56314;48.088;11.642;2022-07-23T02:42:06;4.57;;;3.63;;
26977;SDS011;56314;48.088;11.642;2022-07-23T02:44:32;4.25;;;3.67;;
26977;SDS011;56314;48.088;11.642;2022-07-23T02:46:57;3.95;;;3.60;;
26977;SDS011;56314;48.088;11.642;2022-07-23T02:49:22;3.33;;;3.03;;
26977;SDS011;56314;48.088;11.642;2022-07-23T02:51:48;5.03;;;3.15;;
26977;SDS011;56314;48.088;11.642;2022-07-23T02:54:13;5.80;;;3.55;;
26977;SDS011;56314;48.088;11.642;2022-07-23T02:56:38;3.60;;;2.90;;
26977;SDS011;56314;48.088;11.642;2022-07-23T02:59:04;4.60;;;4.13;;
26977;SDS011;56314;48.088;11.642;2022-07-23T03:01:29;5.55;;;4.45;;
26977;SDS011;56314;48.088;11.642;2022-07-23T03:03:55;6.68;;;4.35;;
26977;SDS011;56314;48.088;11.642;2022-07-23T03:06:20;7.55;;;5.00;;
26977;SDS011;56314;48.088;11.642;2022-07-23T03:08:45;8.63;;;5.40;;
26977;SDS011;56314;48.088;11.642;2022-07-23T03:11:11;7.45;;;5.53;;
26977;SDS011;56314;48.088;11.642;2022-07-23T03:13:37;6.68;;;5.20;;
26977;SDS011;56314;48.088;11.642;2022-07-23T03:16:03;7.88;;;5.70;;
26977;SDS011;56314;48.088;11.642;2022-07-23T03:18:29;7.60;;;5.68;;
26977;SDS011;56314;48.088;11.642;2022-07-23T03:20:54;8.50;;;5.10;;
26977;SDS011;56314;48.088;11.642;2022-07-23T03:23:19;7.78;;;5.32;;
26977;SDS011;56314;48.088;11.642;2022-07-23T03:25:45;6.20;;;5.57;;
26977;SDS011;56314;48.088;11.642;2022-07-23T03:28:13;6.70;;;5.68;;
26977;SDS011;56314;48.088;11.642;2022-07-23T03:30:40;6.00;;;5.50;;
26977;SDS011;56314;48.088;11.642;2022-07-23T03:33:06;5.82;;;5.28;;
26977;SDS011;56314;48.088;11.642;2022-07-23T03:35:31;5.97;;;5.38;;
26977;SDS011;56314;48.088;11.642;2022-07-23T03:37:56;5.93;;;5.43;;
26977;SDS011;56314;48.088;11.642;2022-07-23T03:40:22;6.45;;;5.75;;
26977;SDS011;56314;48.088;11.642;2022-07-23T03:42:47;7.22;;;5.50;;
26977;SDS011;56314;48.088;11.642;2022-07-23T03:45:12;6.30;;;5.70;;
26977;SDS011;56314;48.088;11.642;2022-07-23T03:47:38;6.78;;;5.93;;
26977;SDS011;56314;48.088;11.642;2022-07-23T03:50:04;7.40;;;5.80;;
26977;SDS011;56314;48.088;11.642;2022-07-23T03:52:29;6.72;;;6.13;;
26977;SDS011;56314;48.088;11.642;2022-07-23T03:54:55;7.95;;;6.63;;
26977;SDS011;56314;48.088;11.642;2022-07-23T03:57:20;7.75;;;6.97;;
26977;SDS011;56314;48.088;11.642;2022-07-23T03:59:45;11.52;;;6.50;;
26977;SDS011;56314;48.088;11.642;2022-07-23T04:02:11;8.23;;;7.43;;
26977;SDS011;56314;48.088;11.642;2022-07-23T04:04:36;10.15;;;6.28;;
26977;SDS011;56314;48.088;11.642;2022-07-23T04:07:01;7.50;;;6.45;;
26977;SDS011;56314;48.088;11.642;2022-07-23T04:09:27;8.05;;;6.72;;
26977;SDS011;56314;48.088;11.642;2022-07-23T04:11:52;8.70;;;6.78;;
26977;SDS011;56314;48.088;11.642;2022-07-23T04:14:18;9.43;;;6.55;;
26977;SDS011;56314;48.088;11.642;2022-07-23T04:16:43;8.70;;;6.97;;
26977;SDS011;56314;48.088;11.642;2022-07-23T04:19:08;8.25;;;6.72;;
26977;SDS011;56314;48.088;11.642;2022-07-23T04:21:34;7.22;;;6.55;;
26977;SDS011;56314;48.088;11.642;2022-07-23T04:23:59;8.77;;;6.85;;
26977;SDS011;56314;48.088;11.642;2022-07-23T04:26:24;7.65;;;6.85;;
26977;SDS011;56314;48.088;11.642;2022-07-23T04:28:50;8.30;;;6.80;;
26977;SDS011;56314;48.088;11.642;2022-07-23T04:31:15;7.65;;;6.57;;
26977;SDS011;56314;48.088;11.642;2022-07-23T04:33:40;9.02;;;6.95;;
26977;SDS011;56314;48.088;11.642;2022-07-23T04:36:06;7.85;;;7.05;;
26977;SDS011;56314;48.088;11.642;2022-07-23T04:38:31;9.18;;;6.57;;
26977;SDS011;56314;48.088;11.642;2022-07-23T04:40:57;7.82;;;7.03;;
26977;SDS011;56314;48.088;11.642;2022-07-23T04:43:23;8.48;;;6.97;;
26977;SDS011;56314;48.088;11.642;2022-07-23T04:45:48;7.65;;;6.85;;
26977;SDS011;56314;48.088;11.642;2022-07-23T04:48:14;7.43;;;6.45;;
26977;SDS011;56314;48.088;11.642;2022-07-23T04:50:39;7.78;;;6.53;;
26977;SDS011;56314;48.088;11.642;2022-07-23T04:53:05;8.15;;;6.63;;
26977;SDS011;56314;48.088;11.642;2022-07-23T04:55:30;8.90;;;6.50;;
26977;SDS011;56314;48.088;11.642;2022-07-23T04:57:56;7.80;;;7.00;;
26977;SDS011;56314;48.088;11.642;2022-07-23T05:00:21;7.50;;;6.45;;
26977;SDS011;56314;48.088;11.642;2022-07-23T05:02:46;7.07;;;6.38;;
26977;SDS011;56314;48.088;11.642;2022-07-23T05:05:12;10.73;;;6.95;;
26977;SDS011;56314;48.088;11.642;2022-07-23T05:07:37;7.38;;;6.00;;
26977;SDS011;56314;48.088;11.642;2022-07-23T05:10:03;9.25;;;6.65;;
26977;SDS011;56314;48.088;11.642;2022-07-23T05:12:29;8.57;;;6.88;;
26977;SDS011;56314;48.088;11.642;2022-07-23T05:14:54;8.02;;;6.47;;
26977;SDS011;56314;48.088;11.642;2022-07-23T05:17:19;6.88;;;6.28;;
26977;SDS011;56314;48.088;11.642;2022-07-23T05:19:45;9.10;;;6.30;;
26977;SDS011;56314;48.088;11.642;2022-07-23T05:22:10;7.72;;;6.97;;
26977;SDS011;56314;48.088;11.642;2022-07-23T05:24:35;8.25;;;7.05;;
26977;SDS011;56314;48.088;11.642;2022-07-23T05:27:01;8.93;;;6.88;;
26977;SDS011;56314;48.088;11.642;2022-07-23T05:29:26;8.23;;;7.40;;
26977;SDS011;56314;48.088;11.642;2022-07-23T05:31:51;10.25;;;7.10;;
26977;SDS011;56314;48.088;11.642;2022-07-23T05:34:17;9.10;;;7.13;;
26977;SDS011;56314;48.088;11.642;2022-07-23T05:36:42;8.27;;;7.43;;
26977;SDS011;56314;48.088;11.642;2022-07-23T05:39:07;8.38;;;7.53;;
26977;SDS011;56314;48.088;11.642;2022-07-23T05:41:33;8.95;;;7.30;;
26977;SDS011;56314;48.088;11.642;2022-07-23T05:43:58;8.38;;;7.68;;
26977;SDS011;56314;48.088;11.642;2022-07-23T05:46:23;8.70;;;7.35;;
26977;SDS011;56314;48.088;11.642;2022-07-23T05:48:49;12.32;;;8.00;;
26977;SDS011;56314;48.088;11.642;2022-07-23T05:51:24;9.82;;;7.40;;
26977;SDS011;56314;48.088;11.642;2022-07-23T05:53:50;7.35;;;6.65;;
26977;SDS011;56314;48.088;11.642;2022-07-23T05:56:16;7.30;;;6.70;;
26977;SDS011;56314;48.088;11.642;2022-07-23T05:58:42;8.35;;;7.55;;
26977;SDS011;56314;48.088;11.642;2022-07-23T06:01:08;8.70;;;7.88;;
26977;SDS011;56314;48.088;11.642;2022-07-23T06:03:34;8.40;;;7.55;;
26977;SDS011;56314;48.088;11.642;2022-07-23T06:05:59;8.45;;;7.65;;
26977;SDS011;56314;48.088;11.642;2022-07-23T06:08:24;9.15;;;7.93;;
26977;SDS011;56314;48.088;11.642;2022-07-23T06:10:50;9.30;;;7.93;;
26977;SDS011;56314;48.088;11.642;2022-07-23T06:13:17;8.13;;;7.38;;
26977;SDS011;56314;48.088;11.642;2022-07-23T06:15:43;7.88;;;7.18;;
26977;SDS011;56314;48.088;11.642;2022-07-23T06:18:09;9.65;;;8.25;;
26977;SDS011;56314;48.088;11.642;2022-07-23T06:20:34;9.30;;;8.23;;
26977;SDS011;56314;48.088;11.642;2022-07-23T06:22:59;9.95;;;7.53;;
26977;SDS011;56314;48.088;11.642;2022-07-23T06:25:25;9.57;;;8.32;;
26977;SDS011;56314;48.088;11.642;2022-07-23T06:27:50;10.25;;;7.95;;
26977;SDS011;56314;48.088;11.642;2022-07-23T06:30:16;9.55;;;8.55;;
26977;SDS011;56314;48.088;11.642;2022-07-23T06:32:42;8.93;;;8.13;;
26977;SDS011;56314;48.088;11.642;2022-07-23T06:35:08;9.30;;;8.40;;
26977;SDS011;56314;48.088;11.642;2022-07-23T06:37:34;10.15;;;9.15;;
26977;SDS011;56314;48.088;11.642;2022-07-23T06:39:59;9.40;;;8.50;;
26977;SDS011;56314;48.088;11.642;2022-07-23T06:42:24;10.57;;;8.10;;
26977;SDS011;56314;48.088;11.642;2022-07-23T06:44:50;9.35;;;8.05;;
26977;SDS011;56314;48.088;11.642;2022-07-23T06:47:15;10.23;;;8.68;;
26977;SDS011;56314;48.088;11.642;2022-07-23T06:49:41;10.82;;;8.52;;
26977;SDS011;56314;48.088;11.642;2022-07-23T06:52:06;9.07;;;8.18;;
26977;SDS011;56314;48.088;11.642;2022-07-23T06:54:32;8.45;;;7.60;;
26977;SDS011;56314;48.088;11.642;2022-07-23T06:56:58;9.55;;;8.65;;
26977;SDS011;56314;48.088;11.642;2022-07-23T06:59:23;9.50;;;7.88;;
26977;SDS011;56314;48.088;11.642;2022-07-23T07:01:49;9.05;;;8.05;;
26977;SDS011;56314;48.088;11.642;2022-07-23T07:04:14;9.52;;;8.25;;
26977;SDS011;56314;48.088;11.642;2022-07-23T07:06:39;10.13;;;9.13;;
26977;SDS011;56314;48.088;11.642;2022-07-23T07:09:05;11.00;;;8.13;;
26977;SDS011;56314;48.088;11.642;2022-07-23T07:11:30;9.18;;;7.78;;
26977;SDS011;56314;48.088;11.642;2022-07-23T07:13:56;10.82;;;8.85;;
26977;SDS011;56314;48.088;11.642;2022-07-23T07:16:21;9.27;;;7.93;;
26977;SDS011;56314;48.088;11.642;2022-07-23T07:18:46;10.30;;;7.65;;
26977;SDS011;56314;48.088;11.642;2022-07-23T07:21:12;8.75;;;7.93;;
26977;SDS011;56314;48.088;11.642;2022-07-23T07:23:37;8.13;;;7.32;;
26977;SDS011;56314;48.088;11.642;2022-07-23T07:26:03;8.13;;;6.82;;
26977;SDS011;56314;48.088;11.642;2022-07-23T07:28:28;10.57;;;7.00;;
26977;SDS011;56314;48.088;11.642;2022-07-23T07:30:53;8.27;;;7.43;;
26977;SDS011;56314;48.088;11.642;2022-07-23T07:33:19;7.88;;;7.00;;
26977;SDS011;56314;48.088;11.642;2022-07-23T07:35:46;7.78;;;7.07;;
26977;SDS011;56314;48.088;11.642;2022-07-23T07:38:11;10.25;;;7.20;;
26977;SDS011;56314;48.088;11.642;2022-07-23T07:40:36;8.68;;;7.82;;
26977;SDS011;56314;48.088;11.642;2022-07-23T07:43:02;8.35;;;7.55;;
26977;SDS011;56314;48.088;11.642;2022-07-23T07:45:28;8.40;;;7.68;;
26977;SDS011;56314;48.088;11.642;2022-07-23T07:47:54;12.93;;;11.70;;
26977;SDS011;56314;48.088;11.642;2022-07-23T07:50:20;20.27;;;17.55;;
26977;SDS011;56314;48.088;11.642;2022-07-23T07:52:46;8.30;;;7.60;;
26977;SDS011;56314;48.088;11.642;2022-07-23T07:55:12;9.35;;;8.23;;
26977;SDS011;56314;48.088;11.642;2022-07-23T07:57:38;10.18;;;8.93;;
26977;SDS011;56314;48.088;11.642;2022-07-23T08:00:04;8.88;;;8.07;;
26977;SDS011;56314;48.088;11.642;2022-07-23T08:02:39;10.10;;;8.55;;
26977;SDS011;56314;48.088;11.642;2022-07-23T08:05:10;8.45;;;7.60;;
26977;SDS011;56314;48.088;11.642;2022-07-23T08:07:37;10.77;;;8.48;;
26977;SDS011;56314;48.088;11.642;2022-07-23T08:10:08;8.50;;;7.70;;
26977;SDS011;56314;48.088;11.642;2022-07-23T08:12:41;10.90;;;8.98;;
26977;SDS011;56314;48.088;11.642;2022-07-23T08:15:12;8.90;;;8.00;;
26977;SDS011;56314;48.088;11.642;2022-07-23T08:17:39;9.45;;;8.40;;
26977;SDS011;56314;48.088;11.642;2022-07-23T08:20:06;13.02;;;7.75;;
26977;SDS011;56314;48.088;11.642;2022-07-23T08:23:06;9.73;;;8.57;;
26977;SDS011;56314;48.088;11.642;2022-07-23T08:25:29;8.63;;;7.82;;
26977;SDS011;56314;48.088;11.642;2022-07-23T08:27:59;9.23;;;8.13;;
26977;SDS011;56314;48.088;11.642;2022-07-23T08:30:26;8.25;;;7.47;;
26977;SDS011;56314;48.088;11.642;2022-07-23T08:32:53;11.23;;;8.65;;
26977;SDS011;56314;48.088;11.642;2022-07-23T08:35:23;8.68;;;7.88;;
26977;SDS011;56314;48.088;11.642;2022-07-23T08:38:08;8.38;;;7.65;;
26977;SDS011;56314;48.088;11.642;2022-07-23T08:40:38;8.65;;;7.88;;
26977;SDS011;56314;48.088;11.642;2022-07-23T08:43:06;9.15;;;8.13;;
26977;SDS011;56314;48.088;11.642;2022-07-23T08:45:37;8.25;;;7.30;;
26977;SDS011;56314;48.088;11.642;2022-07-23T08:48:05;8.25;;;7.43;;
26977;SDS011;56314;48.088;11.642;2022-07-23T08:50:32;8.75;;;7.85;;
26977;SDS011;56314;48.088;11.642;2022-07-23T08:53:01;8.65;;;7.82;;
26977;SDS011;56314;48.088;11.642;2022-07-23T08:55:29;8.20;;;7.43;;
26977;SDS011;56314;48.088;11.642;2022-07-23T08:57:54;10.55;;;7.80;;
26977;SDS011;56314;48.088;11.642;2022-07-23T09:00:20;8.73;;;7.65;;
26977;SDS011;56314;48.088;11.642;2022-07-23T09:02:47;9.88;;;6.80;;
26977;SDS011;56314;48.088;11.642;2022-07-23T09:05:14;8.85;;;7.45;;
26977;SDS011;56314;48.088;11.642;2022-07-23T09:10:28;8.13;;;7.43;;
26977;SDS011;56314;48.088;11.642;2022-07-23T09:12:53;8.35;;;7.55;;
26977;SDS011;56314;48.088;11.642;2022-07-23T09:15:19;8.85;;;7.95;;
26977;SDS011;56314;48.088;11.642;2022-07-23T09:17:44;7.50;;;6.80;;
26977;SDS011;56314;48.088;11.642;2022-07-23T09:20:14;8.00;;;7.25;;
26977;SDS011;56314;48.088;11.642;2022-07-23T09:22:45;7.25;;;6.55;;
26977;SDS011;56314;48.088;11.642;2022-07-23T09:25:13;7.43;;;6.72;;
26977;SDS011;56314;48.088;11.642;2022-07-23T09:27:56;7.20;;;6.60;;
26977;SDS011;56314;48.088;11.642;2022-07-23T09:30:24;7.97;;;6.75;;
26977;SDS011;56314;48.088;11.642;2022-07-23T09:33:10;8.85;;;6.75;;
26977;SDS011;56314;48.088;11.642;2022-07-23T09:38:18;7.68;;;6.97;;
26977;SDS011;56314;48.088;11.642;2022-07-23T09:40:46;7.65;;;6.38;;
26977;SDS011;56314;48.088;11.642;2022-07-23T09:46:16;6.77;;;6.17;;
26977;SDS011;56314;48.088;11.642;2022-07-23T09:48:55;7.22;;;6.53;;
26977;SDS011;56314;48.088;11.642;2022-07-23T09:51:23;7.70;;;7.00;;
26977;SDS011;56314;48.088;11.642;2022-07-23T09:53:58;7.95;;;6.85;;
26977;SDS011;56314;48.088;11.642;2022-07-23T09:56:23;8.23;;;6.55;;
26977;SDS011;56314;48.088;11.642;2022-07-23T09:58:52;8.98;;;5.95;;
26977;SDS011;56314;48.088;11.642;2022-07-23T10:01:48;6.60;;;5.90;;
26977;SDS011;56314;48.088;11.642;2022-07-23T10:04:15;6.70;;;6.10;;
26977;SDS011;56314;48.088;11.642;2022-07-23T10:06:41;6.82;;;5.90;;
26977;SDS011;56314;48.088;11.642;2022-07-23T10:09:09;7.40;;;5.40;;
26977;SDS011;56314;48.088;11.642;2022-07-23T10:11:37;6.00;;;5.50;;
26977;SDS011;56314;48.088;11.642;2022-07-23T10:14:03;6.57;;;5.88;;
26977;SDS011;56314;48.088;11.642;2022-07-23T10:16:30;7.78;;;5.50;;
26977;SDS011;56314;48.088;11.642;2022-07-23T10:18:57;7.32;;;5.53;;
26977;SDS011;56314;48.088;11.642;2022-07-23T10:21:45;7.78;;;5.75;;
26977;SDS011;56314;48.088;11.642;2022-07-23T10:24:18;8.48;;;5.30;;
26977;SDS011;56314;48.088;11.642;2022-07-23T10:27:02;6.72;;;5.10;;
26977;SDS011;56314;48.088;11.642;2022-07-23T10:29:42;6.45;;;5.72;;
26977;SDS011;56314;48.088;11.642;2022-07-23T10:35:39;5.72;;;5.13;;
26977;SDS011;56314;48.088;11.642;2022-07-23T10:38:11;7.20;;;5.95;;
26977;SDS011;56314;48.088;11.642;2022-07-23T10:40:53;5.93;;;4.97;;
26977;SDS011;56314;48.088;11.642;2022-07-23T10:43:22;5.40;;;4.97;;
26977;SDS011;56314;48.088;11.642;2022-07-23T10:45:48;6.45;;;5.25;;
26977;SDS011;56314;48.088;11.642;2022-07-23T10:48:24;6.60;;;5.45;;
26977;SDS011;56314;48.088;11.642;2022-07-23T10:53:59;6.28;;;5.68;;
26977;SDS011;56314;48.088;11.642;2022-07-23T10:59:21;4.65;;;4.25;;
26977;SDS011;56314;48.088;11.642;2022-07-23T11:01:47;5.75;;;5.03;;
26977;SDS011;56314;48.088;11.642;2022-07-23T11:04:12;6.40;;;5.47;;
26977;SDS011;56314;48.088;11.642;2022-07-23T11:07:20;8.07;;;5.70;;
26977;SDS011;56314;48.088;11.642;2022-07-23T11:12:34;6.05;;;5.40;;
26977;SDS011;56314;48.088;11.642;2022-07-23T11:17:30;6.55;;;5.75;;
26977;SDS011;56314;48.088;11.642;2022-07-23T11:20:12;6.38;;;5.78;;
26977;SDS011;56314;48.088;11.642;2022-07-23T11:25:10;8.55;;;5.78;;
26977;SDS011;56314;48.088;11.642;2022-07-23T11:27:40;6.97;;;6.18;;
26977;SDS011;56314;48.088;11.642;2022-07-23T11:30:10;7.07;;;5.68;;
26977;SDS011;56314;48.088;11.642;2022-07-23T11:35:34;8.27;;;6.32;;
26977;SDS011;56314;48.088;11.642;2022-07-23T11:38:19;7.10;;;5.90;;
26977;SDS011;56314;48.088;11.642;2022-07-23T11:43:16;7.75;;;6.15;;
26977;SDS011;56314;48.088;11.642;2022-07-23T11:46:04;6.93;;;6.22;;
26977;SDS011;56314;48.088;11.642;2022-07-23T11:48:29;7.32;;;6.60;;
26977;SDS011;56314;48.088;11.642;2022-07-23T11:50:56;9.48;;;7.03;;
26977;SDS011;56314;48.088;11.642;2022-07-23T11:53:23;7.30;;;6.60;;
26977;SDS011;56314;48.088;11.642;2022-07-23T11:55:51;7.07;;;6.38;;
26977;SDS011;56314;48.088;11.642;2022-07-23T11:58:17;9.75;;;7.22;;
26977;SDS011;56314;48.088;11.642;2022-07-23T12:00:42;7.75;;;6.07;;
26977;SDS011;56314;48.088;11.642;2022-07-23T12:03:08;7.35;;;6.35;;
26977;SDS011;56314;48.088;11.642;2022-07-23T12:05:34;7.53;;;6.70;;
26977;SDS011;56314;48.088;11.642;2022-07-23T12:08:02;8.32;;;6.70;;
26977;SDS011;56314;48.088;11.642;2022-07-23T12:10:34;7.32;;;6.18;;
26977;SDS011;56314;48.088;11.642;2022-07-23T12:13:08;9.35;;;6.63;;
26977;SDS011;56314;48.088;11.642;2022-07-23T12:15:39;6.78;;;6.13;;
26977;SDS011;56314;48.088;11.642;2022-07-23T12:18:08;7.07;;;6.38;;
26977;SDS011;56314;48.088;11.642;2022-07-23T12:20:35;6.43;;;5.70;;
26977;SDS011;56314;48.088;11.642;2022-07-23T12:23:03;7.05;;;6.35;;
26977;SDS011;56314;48.088;11.642;2022-07-23T12:25:31;7.82;;;6.13;;
26977;SDS011;56314;48.088;11.642;2022-07-23T13:55:44;8.52;;;6.10;;
26977;SDS011;56314;48.088;11.642;2022-07-23T13:58:10;7.85;;;6.40;;
26977;SDS011;56314;48.088;11.642;2022-07-23T14:00:38;7.60;;;6.38;;
26977;SDS011;56314;48.088;11.642;2022-07-23T14:03:06;8.75;;;6.05;;
26977;SDS011;56314;48.088;11.642;2022-07-23T14:05:32;6.18;;;5.57;;
26977;SDS011;56314;48.088;11.642;2022-07-23T14:07:57;7.35;;;6.40;;
26977;SDS011;56314;48.088;11.642;2022-07-23T14:10:23;7.05;;;6.45;;
26977;SDS011;56314;48.088;11.642;2022-07-23T14:12:49;6.75;;;6.18;;
26977;SDS011;56314;48.088;11.642;2022-07-23T14:15:17;9.30;;;6.03;;
26977;SDS011;56314;48.088;11.642;2022-07-23T14:17:43;6.47;;;5.78;;
26977;SDS011;56314;48.088;11.642;2022-07-23T14:20:10;6.38;;;5.72;;
26977;SDS011;56314;48.088;11.642;2022-07-23T14:22:36;7.57;;;6.45;;
26977;SDS011;56314;48.088;11.642;2022-07-23T14:25:02;6.60;;;6.00;;
26977;SDS011;56314;48.088;11.642;2022-07-23T14:27:28;7.93;;;6.30;;
26977;SDS011;56314;48.088;11.642;2022-07-23T14:29:54;7.20;;;6.50;;
26977;SDS011;56314;48.088;11.642;2022-07-23T14:32:21;6.72;;;6.00;;
26977;SDS011;56314;48.088;11.642;2022-07-23T14:34:47;7.30;;;6.60;;
26977;SDS011;56314;48.088;11.642;2022-07-23T14:37:12;6.80;;;6.20;;
26977;SDS011;56314;48.088;11.642;2022-07-23T14:39:39;8.20;;;7.40;;
26977;SDS011;56314;48.088;11.642;2022-07-23T14:42:05;7.00;;;6.22;;
26977;SDS011;56314;48.088;11.642;2022-07-23T14:44:31;6.90;;;6.30;;
26977;SDS011;56314;48.088;11.642;2022-07-23T14:46:57;6.90;;;6.30;;
26977;SDS011;56314;48.088;11.642;2022-07-23T14:49:22;7.70;;;7.00;;
26977;SDS011;56314;48.088;11.642;2022-07-23T14:51:48;8.77;;;7.22;;
26977;SDS011;56314;48.088;11.642;2022-07-23T14:54:14;7.93;;;7.13;;
26977;SDS011;56314;48.088;11.642;2022-07-23T14:56:40;7.25;;;6.65;;
26977;SDS011;56314;48.088;11.642;2022-07-23T14:59:06;8.60;;;7.05;;
26977;SDS011;56314;48.088;11.642;2022-07-23T15:01:32;7.95;;;7.20;;
26977;SDS011;56314;48.088;11.642;2022-07-23T15:03:57;8.85;;;6.97;;
26977;SDS011;56314;48.088;11.642;2022-07-23T15:06:23;9.30;;;7.00;;
26977;SDS011;56314;48.088;11.642;2022-07-23T15:08:49;7.45;;;6.82;;
26977;SDS011;56314;48.088;11.642;2022-07-23T15:11:14;7.60;;;6.88;;
26977;SDS011;56314;48.088;11.642;2022-07-23T15:13:40;8.65;;;7.75;;
26977;SDS011;56314;48.088;11.642;2022-07-23T15:16:05;7.68;;;6.95;;
26977;SDS011;56314;48.088;11.642;2022-07-23T15:18:32;10.00;;;8.07;;
26977;SDS011;56314;48.088;11.642;2022-07-23T15:20:57;7.60;;;6.97;;
26977;SDS011;56314;48.088;11.642;2022-07-23T15:23:23;8.45;;;7.65;;
26977;SDS011;56314;48.088;11.642;2022-07-23T15:25:48;8.60;;;7.45;;
26977;SDS011;56314;48.088;11.642;2022-07-23T15:28:14;8.95;;;8.15;;
26977;SDS011;56314;48.088;11.642;2022-07-23T15:30:39;10.23;;;8.18;;
26977;SDS011;56314;48.088;11.642;2022-07-23T15:33:05;8.82;;;8.02;;
26977;SDS011;56314;48.088;11.642;2022-07-23T15:35:31;8.40;;;7.70;;
26977;SDS011;56314;48.088;11.642;2022-07-23T15:37:57;8.35;;;7.55;;
26977;SDS011;56314;48.088;11.642;2022-07-23T15:40:22;10.77;;;8.57;;
26977;SDS011;56314;48.088;11.642;2022-07-23T15:42:47;9.13;;;8.25;;
26977;SDS011;56314;48.088;11.642;2022-07-23T15:45:14;10.23;;;9.23;;
26977;SDS011;56314;48.088;11.642;2022-07-23T15:47:40;8.52;;;7.72;;
26977;SDS011;56314;48.088;11.642;2022-07-23T15:50:06;9.10;;;8.20;;
26977;SDS011;56314;48.088;11.642;2022-07-23T15:52:32;10.10;;;9.05;;
26977;SDS011;56314;48.088;11.642;2022-07-23T15:54:57;9.07;;;8.18;;
26977;SDS011;56314;48.088;11.642;2022-07-23T15:57:23;11.45;;;10.38;;
26977;SDS011;56314;48.088;11.642;2022-07-23T15:59:48;9.70;;;8.70;;
26977;SDS011;56314;48.088;11.642;2022-07-23T16:02:14;8.95;;;8.05;;
26977;SDS011;56314;48.088;11.642;2022-07-23T16:04:40;9.30;;;8.35;;
26977;SDS011;56314;48.088;11.642;2022-07-23T16:07:06;8.60;;;7.72;;
26977;SDS011;56314;48.088;11.642;2022-07-23T16:09:31;9.60;;;8.10;;
26977;SDS011;56314;48.088;11.642;2022-07-23T16:11:56;8.75;;;7.95;;
26977;SDS011;56314;48.088;11.642;2022-07-23T16:14:22;8.55;;;7.60;;
26977;SDS011;56314;48.088;11.642;2022-07-23T16:16:47;9.90;;;8.27;;
26977;SDS011;56314;48.088;11.642;2022-07-23T16:19:13;8.98;;;8.18;;
26977;SDS011;56314;48.088;11.642;2022-07-23T16:21:39;9.32;;;8.43;;
26977;SDS011;56314;48.088;11.642;2022-07-23T16:24:04;10.07;;;8.35;;
26977;SDS011;56314;48.088;11.642;2022-07-23T16:26:30;8.48;;;7.68;;
26977;SDS011;56314;48.088;11.642;2022-07-23T16:28:56;10.18;;;8.32;;
26977;SDS011;56314;48.088;11.642;2022-07-23T16:31:21;9.90;;;8.45;;